sensor_id;sensor_type;location;lat;lon;timestamp;temperature;humidity
13561;DHT22;6852;51.686;5.314;2022-10-16T00:01:16;13.30;99.90
13561;DHT22;6852;51.686;5.314;2022-10-16T00:03:44;13.30;99.90
13561;DHT22;6852;51.686;5.314;2022-10-16T00:06:13;13.30;99.90
13561;DHT22;6852;51.686;5.314;2022-10-16T00:08:40;13.20;99.90
13561;DHT22;6852;51.686;5.314;2022-10-16T00:13:38;13.20;99.90
13561;DHT22;6852;51.686;5.314;2022-10-16T00:16:05;13.20;99.90
13561;DHT22;6852;51.686;5.314;2022-10-16T00:18:33;13.20;99.90
13561;DHT22;6852;51.686;5.314;2022-10-16T00:21:15;13.20;99.90
13561;DHT22;6852;51.686;5.314;2022-10-16T00:23:42;13.20;99.90
13561;DHT22;6852;51.686;5.314;2022-10-16T00:26:13;13.10;99.90
13561;DHT22;6852;51.686;5.314;2022-10-16T00:28:41;13.10;99.90
13561;DHT22;6852;51.686;5.314;2022-10-16T00:31:09;13.10;99.90
13561;DHT22;6852;51.686;5.314;2022-10-16T00:33:38;13.10;99.90
13561;DHT22;6852;51.686;5.314;2022-10-16T00:36:07;13.10;99.90
13561;DHT22;6852;51.686;5.314;2022-10-16T00:38:34;13.00;99.90
13561;DHT22;6852;51.686;5.314;2022-10-16T00:41:01;13.10;99.90
13561;DHT22;6852;51.686;5.314;2022-10-16T00:43:40;13.10;99.90
13561;DHT22;6852;51.686;5.314;2022-10-16T00:46:40;13.10;99.90
13561;DHT22;6852;51.686;5.314;2022-10-16T00:49:18;13.20;99.90
13561;DHT22;6852;51.686;5.314;2022-10-16T00:51:48;13.20;99.90
13561;DHT22;6852;51.686;5.314;2022-10-16T00:54:31;13.10;99.90
13561;DHT22;6852;51.686;5.314;2022-10-16T00:57:04;13.20;99.90
13561;DHT22;6852;51.686;5.314;2022-10-16T00:59:35;13.10;99.90
13561;DHT22;6852;51.686;5.314;2022-10-16T01:02:04;13.10;99.90
13561;DHT22;6852;51.686;5.314;2022-10-16T01:04:35;13.20;99.90
13561;DHT22;6852;51.686;5.314;2022-10-16T01:28:17;13.10;99.90
13561;DHT22;6852;51.686;5.314;2022-10-16T01:30:46;13.10;99.90
13561;DHT22;6852;51.686;5.314;2022-10-16T01:33:20;13.10;99.90
13561;DHT22;6852;51.686;5.314;2022-10-16T01:35:52;13.10;99.90
13561;DHT22;6852;51.686;5.314;2022-10-16T01:38:26;13.10;99.90
13561;DHT22;6852;51.686;5.314;2022-10-16T01:41:01;13.20;99.90
13561;DHT22;6852;51.686;5.314;2022-10-16T01:43:36;13.10;99.90
13561;DHT22;6852;51.686;5.314;2022-10-16T01:46:05;13.10;99.90
13561;DHT22;6852;51.686;5.314;2022-10-16T01:48:34;13.20;99.90
13561;DHT22;6852;51.686;5.314;2022-10-16T01:51:08;13.20;99.90
13561;DHT22;6852;51.686;5.314;2022-10-16T01:53:36;13.20;99.90
13561;DHT22;6852;51.686;5.314;2022-10-16T01:56:06;13.20;99.90
13561;DHT22;6852;51.686;5.314;2022-10-16T01:58:37;13.10;99.90
13561;DHT22;6852;51.686;5.314;2022-10-16T02:01:08;13.20;99.90
13561;DHT22;6852;51.686;5.314;2022-10-16T02:03:38;13.20;99.90
13561;DHT22;6852;51.686;5.314;2022-10-16T02:06:06;13.30;99.90
13561;DHT22;6852;51.686;5.314;2022-10-16T02:08:33;13.20;99.90
13561;DHT22;6852;51.686;5.314;2022-10-16T02:11:01;13.20;99.90
13561;DHT22;6852;51.686;5.314;2022-10-16T02:13:41;13.10;99.90
13561;DHT22;6852;51.686;5.314;2022-10-16T02:16:13;13.20;99.90
13561;DHT22;6852;51.686;5.314;2022-10-16T02:18:41;13.10;99.90
13561;DHT22;6852;51.686;5.314;2022-10-16T02:21:17;13.10;99.90
13561;DHT22;6852;51.686;5.314;2022-10-16T02:23:49;13.10;99.90
13561;DHT22;6852;51.686;5.314;2022-10-16T02:26:23;13.10;99.90
13561;DHT22;6852;51.686;5.314;2022-10-16T02:28:56;13.20;99.90
13561;DHT22;6852;51.686;5.314;2022-10-16T02:31:28;13.10;99.90
13561;DHT22;6852;51.686;5.314;2022-10-16T02:33:59;13.20;99.90
13561;DHT22;6852;51.686;5.314;2022-10-16T02:36:27;13.10;99.90
13561;DHT22;6852;51.686;5.314;2022-10-16T02:38:54;13.10;99.90
13561;DHT22;6852;51.686;5.314;2022-10-16T02:41:22;13.10;99.90
13561;DHT22;6852;51.686;5.314;2022-10-16T02:43:49;13.10;99.90
13561;DHT22;6852;51.686;5.314;2022-10-16T02:46:17;13.10;99.90
13561;DHT22;6852;51.686;5.314;2022-10-16T02:48:44;13.00;99.90
13561;DHT22;6852;51.686;5.314;2022-10-16T02:51:11;13.00;99.90
13561;DHT22;6852;51.686;5.314;2022-10-16T02:53:38;13.00;99.90
13561;DHT22;6852;51.686;5.314;2022-10-16T02:56:06;13.00;99.90
13561;DHT22;6852;51.686;5.314;2022-10-16T02:58:32;13.00;99.90
13561;DHT22;6852;51.686;5.314;2022-10-16T03:00:59;13.00;99.90
13561;DHT22;6852;51.686;5.314;2022-10-16T03:03:26;13.00;99.90
13561;DHT22;6852;51.686;5.314;2022-10-16T03:05:53;13.10;99.90
13561;DHT22;6852;51.686;5.314;2022-10-16T03:08:20;13.00;99.90
13561;DHT22;6852;51.686;5.314;2022-10-16T03:10:50;13.00;99.90
13561;DHT22;6852;51.686;5.314;2022-10-16T03:13:17;13.00;99.90
13561;DHT22;6852;51.686;5.314;2022-10-16T03:15:47;13.00;99.90
13561;DHT22;6852;51.686;5.314;2022-10-16T03:18:14;13.00;99.90
13561;DHT22;6852;51.686;5.314;2022-10-16T03:20:42;13.00;99.90
13561;DHT22;6852;51.686;5.314;2022-10-16T03:23:09;13.00;99.90
13561;DHT22;6852;51.686;5.314;2022-10-16T03:25:37;12.90;99.90
13561;DHT22;6852;51.686;5.314;2022-10-16T03:28:04;12.90;99.90
13561;DHT22;6852;51.686;5.314;2022-10-16T03:30:31;13.00;99.90
13561;DHT22;6852;51.686;5.314;2022-10-16T03:32:58;13.00;99.90
13561;DHT22;6852;51.686;5.314;2022-10-16T03:35:25;12.90;99.90
13561;DHT22;6852;51.686;5.314;2022-10-16T03:37:52;12.90;99.90
13561;DHT22;6852;51.686;5.314;2022-10-16T03:40:19;12.90;99.90
13561;DHT22;6852;51.686;5.314;2022-10-16T03:42:46;12.90;99.90
13561;DHT22;6852;51.686;5.314;2022-10-16T03:45:13;12.90;99.90
13561;DHT22;6852;51.686;5.314;2022-10-16T03:47:41;12.90;99.90
13561;DHT22;6852;51.686;5.314;2022-10-16T03:50:08;12.80;99.90
13561;DHT22;6852;51.686;5.314;2022-10-16T03:52:35;12.80;99.90
13561;DHT22;6852;51.686;5.314;2022-10-16T03:55:02;12.80;99.90
13561;DHT22;6852;51.686;5.314;2022-10-16T03:57:29;12.80;99.90
13561;DHT22;6852;51.686;5.314;2022-10-16T03:59:56;12.80;99.90
13561;DHT22;6852;51.686;5.314;2022-10-16T04:02:22;12.80;99.90
13561;DHT22;6852;51.686;5.314;2022-10-16T04:04:50;12.70;99.90
13561;DHT22;6852;51.686;5.314;2022-10-16T04:07:16;12.70;99.90
13561;DHT22;6852;51.686;5.314;2022-10-16T04:09:43;12.80;99.90
13561;DHT22;6852;51.686;5.314;2022-10-16T04:12:11;12.70;99.90
13561;DHT22;6852;51.686;5.314;2022-10-16T04:14:38;12.80;99.90
13561;DHT22;6852;51.686;5.314;2022-10-16T04:17:05;12.80;99.90
13561;DHT22;6852;51.686;5.314;2022-10-16T04:19:32;12.70;99.90
13561;DHT22;6852;51.686;5.314;2022-10-16T04:21:59;12.70;99.90
13561;DHT22;6852;51.686;5.314;2022-10-16T04:24:26;12.70;99.90
13561;DHT22;6852;51.686;5.314;2022-10-16T04:26:52;12.80;99.90
13561;DHT22;6852;51.686;5.314;2022-10-16T04:29:19;12.70;99.90
13561;DHT22;6852;51.686;5.314;2022-10-16T04:31:46;12.70;99.90
13561;DHT22;6852;51.686;5.314;2022-10-16T04:34:13;12.70;99.90
13561;DHT22;6852;51.686;5.314;2022-10-16T04:36:40;12.70;99.90
13561;DHT22;6852;51.686;5.314;2022-10-16T04:39:07;12.70;99.90
13561;DHT22;6852;51.686;5.314;2022-10-16T04:41:34;12.80;99.90
13561;DHT22;6852;51.686;5.314;2022-10-16T04:44:01;12.90;99.90
13561;DHT22;6852;51.686;5.314;2022-10-16T04:46:27;12.80;99.90
13561;DHT22;6852;51.686;5.314;2022-10-16T04:48:54;12.80;99.90
13561;DHT22;6852;51.686;5.314;2022-10-16T04:51:21;12.80;99.90
13561;DHT22;6852;51.686;5.314;2022-10-16T04:53:48;12.70;99.90
13561;DHT22;6852;51.686;5.314;2022-10-16T04:56:15;12.70;99.90
13561;DHT22;6852;51.686;5.314;2022-10-16T04:58:42;12.60;99.90
13561;DHT22;6852;51.686;5.314;2022-10-16T05:01:09;12.60;99.90
13561;DHT22;6852;51.686;5.314;2022-10-16T05:03:35;12.70;99.90
13561;DHT22;6852;51.686;5.314;2022-10-16T05:06:05;12.60;99.90
13561;DHT22;6852;51.686;5.314;2022-10-16T05:08:32;12.60;99.90
13561;DHT22;6852;51.686;5.314;2022-10-16T05:10:59;12.50;99.90
13561;DHT22;6852;51.686;5.314;2022-10-16T05:13:27;12.50;99.90
13561;DHT22;6852;51.686;5.314;2022-10-16T05:15:54;12.50;99.90
13561;DHT22;6852;51.686;5.314;2022-10-16T05:18:20;12.50;99.90
13561;DHT22;6852;51.686;5.314;2022-10-16T05:20:47;12.50;99.90
13561;DHT22;6852;51.686;5.314;2022-10-16T05:23:14;12.60;99.90
13561;DHT22;6852;51.686;5.314;2022-10-16T05:25:41;12.60;99.90
13561;DHT22;6852;51.686;5.314;2022-10-16T05:28:08;12.60;99.90
13561;DHT22;6852;51.686;5.314;2022-10-16T05:30:37;12.50;99.90
13561;DHT22;6852;51.686;5.314;2022-10-16T05:33:04;12.60;99.90
13561;DHT22;6852;51.686;5.314;2022-10-16T05:35:30;12.60;99.90
13561;DHT22;6852;51.686;5.314;2022-10-16T05:37:57;12.60;99.90
13561;DHT22;6852;51.686;5.314;2022-10-16T05:40:24;12.60;99.90
13561;DHT22;6852;51.686;5.314;2022-10-16T05:42:55;12.50;99.90
13561;DHT22;6852;51.686;5.314;2022-10-16T05:45:22;12.50;99.90
13561;DHT22;6852;51.686;5.314;2022-10-16T05:47:49;12.60;99.90
13561;DHT22;6852;51.686;5.314;2022-10-16T05:50:15;12.50;99.90
13561;DHT22;6852;51.686;5.314;2022-10-16T05:52:42;12.50;99.90
13561;DHT22;6852;51.686;5.314;2022-10-16T05:55:09;12.50;99.90
13561;DHT22;6852;51.686;5.314;2022-10-16T05:57:36;12.50;99.90
13561;DHT22;6852;51.686;5.314;2022-10-16T06:00:04;12.60;99.90
13561;DHT22;6852;51.686;5.314;2022-10-16T06:02:32;12.50;99.90
13561;DHT22;6852;51.686;5.314;2022-10-16T06:04:59;12.50;99.90
13561;DHT22;6852;51.686;5.314;2022-10-16T06:07:26;12.50;99.90
13561;DHT22;6852;51.686;5.314;2022-10-16T06:09:53;12.50;99.90
13561;DHT22;6852;51.686;5.314;2022-10-16T06:12:20;12.50;99.90
13561;DHT22;6852;51.686;5.314;2022-10-16T06:14:47;12.40;99.90
13561;DHT22;6852;51.686;5.314;2022-10-16T06:17:14;12.50;99.90
13561;DHT22;6852;51.686;5.314;2022-10-16T06:19:41;12.50;99.90
13561;DHT22;6852;51.686;5.314;2022-10-16T06:22:08;12.60;99.90
13561;DHT22;6852;51.686;5.314;2022-10-16T06:24:35;12.50;99.90
13561;DHT22;6852;51.686;5.314;2022-10-16T06:27:03;12.60;99.90
13561;DHT22;6852;51.686;5.314;2022-10-16T06:29:30;12.70;99.90
13561;DHT22;6852;51.686;5.314;2022-10-16T06:31:57;12.70;99.90
13561;DHT22;6852;51.686;5.314;2022-10-16T06:34:24;12.70;99.90
13561;DHT22;6852;51.686;5.314;2022-10-16T06:36:51;12.70;99.90
13561;DHT22;6852;51.686;5.314;2022-10-16T06:39:17;12.60;99.90
13561;DHT22;6852;51.686;5.314;2022-10-16T06:41:44;12.70;99.90
13561;DHT22;6852;51.686;5.314;2022-10-16T06:44:11;12.70;99.90
13561;DHT22;6852;51.686;5.314;2022-10-16T06:46:38;12.70;99.90
13561;DHT22;6852;51.686;5.314;2022-10-16T06:49:05;12.80;99.90
13561;DHT22;6852;51.686;5.314;2022-10-16T06:51:32;12.80;99.90
13561;DHT22;6852;51.686;5.314;2022-10-16T06:54:06;12.80;99.90
13561;DHT22;6852;51.686;5.314;2022-10-16T06:56:33;12.90;99.90
13561;DHT22;6852;51.686;5.314;2022-10-16T06:59:00;12.90;99.90
13561;DHT22;6852;51.686;5.314;2022-10-16T07:01:28;13.00;99.90
13561;DHT22;6852;51.686;5.314;2022-10-16T07:03:54;13.00;99.90
13561;DHT22;6852;51.686;5.314;2022-10-16T07:06:24;13.00;99.90
13561;DHT22;6852;51.686;5.314;2022-10-16T07:08:51;13.00;99.90
13561;DHT22;6852;51.686;5.314;2022-10-16T07:11:20;13.10;99.90
13561;DHT22;6852;51.686;5.314;2022-10-16T07:13:48;13.00;99.90
13561;DHT22;6852;51.686;5.314;2022-10-16T07:16:24;13.10;99.90
13561;DHT22;6852;51.686;5.314;2022-10-16T07:18:56;13.10;99.90
13561;DHT22;6852;51.686;5.314;2022-10-16T07:21:29;13.10;99.90
13561;DHT22;6852;51.686;5.314;2022-10-16T07:23:58;13.10;99.90
13561;DHT22;6852;51.686;5.314;2022-10-16T07:26:27;13.20;99.90
13561;DHT22;6852;51.686;5.314;2022-10-16T07:28:55;13.30;99.90
13561;DHT22;6852;51.686;5.314;2022-10-16T07:31:22;13.30;99.90
13561;DHT22;6852;51.686;5.314;2022-10-16T07:33:50;13.50;99.90
13561;DHT22;6852;51.686;5.314;2022-10-16T07:36:18;13.60;99.90
13561;DHT22;6852;51.686;5.314;2022-10-16T07:38:46;13.70;99.90
13561;DHT22;6852;51.686;5.314;2022-10-16T07:41:16;13.80;99.90
13561;DHT22;6852;51.686;5.314;2022-10-16T07:43:53;13.90;99.90
13561;DHT22;6852;51.686;5.314;2022-10-16T07:46:22;14.10;99.90
13561;DHT22;6852;51.686;5.314;2022-10-16T07:48:50;14.20;99.90
13561;DHT22;6852;51.686;5.314;2022-10-16T07:51:20;14.30;99.90
13561;DHT22;6852;51.686;5.314;2022-10-16T07:53:47;14.20;99.90
13561;DHT22;6852;51.686;5.314;2022-10-16T07:56:15;14.20;99.90
13561;DHT22;6852;51.686;5.314;2022-10-16T07:58:42;14.10;99.90
13561;DHT22;6852;51.686;5.314;2022-10-16T08:01:13;14.10;99.90
13561;DHT22;6852;51.686;5.314;2022-10-16T08:03:45;14.00;99.90
13561;DHT22;6852;51.686;5.314;2022-10-16T08:06:12;14.10;99.90
13561;DHT22;6852;51.686;5.314;2022-10-16T08:08:40;14.20;99.90
13561;DHT22;6852;51.686;5.314;2022-10-16T08:11:07;14.60;99.90
13561;DHT22;6852;51.686;5.314;2022-10-16T08:13:34;14.90;99.90
13561;DHT22;6852;51.686;5.314;2022-10-16T08:16:02;15.20;99.90
13561;DHT22;6852;51.686;5.314;2022-10-16T08:18:30;15.40;99.90
13561;DHT22;6852;51.686;5.314;2022-10-16T08:20:58;15.60;99.90
13561;DHT22;6852;51.686;5.314;2022-10-16T08:23:27;15.80;99.90
13561;DHT22;6852;51.686;5.314;2022-10-16T08:25:54;15.90;99.90
13561;DHT22;6852;51.686;5.314;2022-10-16T08:28:22;16.20;99.90
13561;DHT22;6852;51.686;5.314;2022-10-16T08:30:49;16.30;99.90
13561;DHT22;6852;51.686;5.314;2022-10-16T08:33:16;16.40;99.90
13561;DHT22;6852;51.686;5.314;2022-10-16T08:35:50;16.40;99.90
13561;DHT22;6852;51.686;5.314;2022-10-16T08:38:17;16.30;99.90
13561;DHT22;6852;51.686;5.314;2022-10-16T08:40:44;16.30;99.90
13561;DHT22;6852;51.686;5.314;2022-10-16T08:48:35;17.00;99.90
13561;DHT22;6852;51.686;5.314;2022-10-16T08:51:08;16.80;99.90
13561;DHT22;6852;51.686;5.314;2022-10-16T08:56:06;17.10;99.90
13561;DHT22;6852;51.686;5.314;2022-10-16T08:58:34;16.90;99.90
13561;DHT22;6852;51.686;5.314;2022-10-16T09:01:04;16.80;99.90
13561;DHT22;6852;51.686;5.314;2022-10-16T09:03:53;16.80;99.90
13561;DHT22;6852;51.686;5.314;2022-10-16T09:17:41;17.40;99.90
13561;DHT22;6852;51.686;5.314;2022-10-16T09:25:30;17.10;99.90
13561;DHT22;6852;51.686;5.314;2022-10-16T09:27:57;17.40;99.90
13561;DHT22;6852;51.686;5.314;2022-10-16T09:30:28;17.20;99.90
13561;DHT22;6852;51.686;5.314;2022-10-16T09:32:58;17.50;99.90
13561;DHT22;6852;51.686;5.314;2022-10-16T09:35:52;17.60;99.90
13561;DHT22;6852;51.686;5.314;2022-10-16T09:38:33;17.70;28.60
13561;DHT22;6852;51.686;5.314;2022-10-16T09:41:01;17.70;97.00
13561;DHT22;6852;51.686;5.314;2022-10-16T09:43:38;17.50;99.90
13561;DHT22;6852;51.686;5.314;2022-10-16T09:46:08;17.70;99.90
13561;DHT22;6852;51.686;5.314;2022-10-16T09:48:44;17.60;99.90
13561;DHT22;6852;51.686;5.314;2022-10-16T09:51:36;17.60;99.90
13561;DHT22;6852;51.686;5.314;2022-10-16T09:54:15;17.80;99.90
13561;DHT22;6852;51.686;5.314;2022-10-16T09:56:42;17.90;99.90
13561;DHT22;6852;51.686;5.314;2022-10-16T09:59:17;17.80;99.90
13561;DHT22;6852;51.686;5.314;2022-10-16T10:01:50;17.80;99.90
13561;DHT22;6852;51.686;5.314;2022-10-16T10:04:23;17.90;99.90
13561;DHT22;6852;51.686;5.314;2022-10-16T10:06:54;17.90;99.90
13561;DHT22;6852;51.686;5.314;2022-10-16T10:09:27;17.80;99.90
13561;DHT22;6852;51.686;5.314;2022-10-16T10:11:57;17.80;99.90
13561;DHT22;6852;51.686;5.314;2022-10-16T10:14:35;17.90;99.90
13561;DHT22;6852;51.686;5.314;2022-10-16T10:22:21;17.60;99.90
13561;DHT22;6852;51.686;5.314;2022-10-16T10:36:34;18.40;99.90
13561;DHT22;6852;51.686;5.314;2022-10-16T10:39:18;18.10;99.90
13561;DHT22;6852;51.686;5.314;2022-10-16T10:47:52;17.70;99.90
13561;DHT22;6852;51.686;5.314;2022-10-16T10:50:43;17.90;99.90
13561;DHT22;6852;51.686;5.314;2022-10-16T10:53:17;17.70;99.90
13561;DHT22;6852;51.686;5.314;2022-10-16T10:55:46;17.80;99.90
13561;DHT22;6852;51.686;5.314;2022-10-16T10:58:50;17.70;99.90
13561;DHT22;6852;51.686;5.314;2022-10-16T11:04:35;17.50;99.90
13561;DHT22;6852;51.686;5.314;2022-10-16T11:07:12;17.60;99.90
13561;DHT22;6852;51.686;5.314;2022-10-16T11:09:47;17.60;99.90
13561;DHT22;6852;51.686;5.314;2022-10-16T11:20:37;17.80;99.90
13561;DHT22;6852;51.686;5.314;2022-10-16T11:23:38;17.60;99.90
13561;DHT22;6852;51.686;5.314;2022-10-16T11:26:16;17.60;99.90
13561;DHT22;6852;51.686;5.314;2022-10-16T11:28:53;17.60;99.90
13561;DHT22;6852;51.686;5.314;2022-10-16T11:39:30;17.70;99.90
13561;DHT22;6852;51.686;5.314;2022-10-16T11:42:11;17.70;99.90
13561;DHT22;6852;51.686;5.314;2022-10-16T11:45:03;18.20;99.90
13561;DHT22;6852;51.686;5.314;2022-10-16T11:47:42;18.00;99.90
13561;DHT22;6852;51.686;5.314;2022-10-16T11:50:50;18.10;99.90
13561;DHT22;6852;51.686;5.314;2022-10-16T11:53:46;18.00;99.90
13561;DHT22;6852;51.686;5.314;2022-10-16T11:56:19;17.70;99.90
13561;DHT22;6852;51.686;5.314;2022-10-16T11:59:00;18.30;99.90
13561;DHT22;6852;51.686;5.314;2022-10-16T12:01:43;19.10;99.90
13561;DHT22;6852;51.686;5.314;2022-10-16T12:11:52;19.30;99.90
13561;DHT22;6852;51.686;5.314;2022-10-16T12:14:33;18.90;99.90
13561;DHT22;6852;51.686;5.314;2022-10-16T12:17:26;18.80;99.90
13561;DHT22;6852;51.686;5.314;2022-10-16T12:20:01;18.50;99.90
13561;DHT22;6852;51.686;5.314;2022-10-16T12:22:50;18.50;99.90
13561;DHT22;6852;51.686;5.314;2022-10-16T12:25:23;18.40;99.90
13561;DHT22;6852;51.686;5.314;2022-10-16T12:28:33;19.00;99.90
13561;DHT22;6852;51.686;5.314;2022-10-16T12:30:58;19.90;99.90
13561;DHT22;6852;51.686;5.314;2022-10-16T12:35:59;20.00;99.90
13561;DHT22;6852;51.686;5.314;2022-10-16T12:38:45;20.20;99.90
13561;DHT22;6852;51.686;5.314;2022-10-16T12:41:33;20.30;99.90
13561;DHT22;6852;51.686;5.314;2022-10-16T12:44:01;20.60;99.90
13561;DHT22;6852;51.686;5.314;2022-10-16T12:51:42;21.20;99.90
13561;DHT22;6852;51.686;5.314;2022-10-16T12:54:20;21.20;99.90
13561;DHT22;6852;51.686;5.314;2022-10-16T12:59:40;21.20;99.90
13561;DHT22;6852;51.686;5.314;2022-10-16T13:10:32;21.20;99.90
13561;DHT22;6852;51.686;5.314;2022-10-16T13:13:07;21.20;99.90
13561;DHT22;6852;51.686;5.314;2022-10-16T13:27:07;20.60;99.90
13561;DHT22;6852;51.686;5.314;2022-10-16T13:29:36;20.70;99.90
13561;DHT22;6852;51.686;5.314;2022-10-16T13:32:09;20.70;99.90
13561;DHT22;6852;51.686;5.314;2022-10-16T13:34:45;20.20;99.90
13561;DHT22;6852;51.686;5.314;2022-10-16T13:37:24;20.10;99.90
13561;DHT22;6852;51.686;5.314;2022-10-16T13:40:06;20.00;99.90
13561;DHT22;6852;51.686;5.314;2022-10-16T13:42:34;20.40;99.90
13561;DHT22;6852;51.686;5.314;2022-10-16T13:45:01;20.50;99.90
13561;DHT22;6852;51.686;5.314;2022-10-16T13:47:30;20.80;99.90
13561;DHT22;6852;51.686;5.314;2022-10-16T13:50:06;20.90;99.90
13561;DHT22;6852;51.686;5.314;2022-10-16T13:52:36;20.40;99.90
13561;DHT22;6852;51.686;5.314;2022-10-16T13:55:11;20.10;99.90
13561;DHT22;6852;51.686;5.314;2022-10-16T13:57:38;20.30;99.90
13561;DHT22;6852;51.686;5.314;2022-10-16T14:00:26;20.50;99.90
13561;DHT22;6852;51.686;5.314;2022-10-16T14:03:03;20.30;99.90
13561;DHT22;6852;51.686;5.314;2022-10-16T14:05:31;20.50;99.90
13561;DHT22;6852;51.686;5.314;2022-10-16T14:07:59;20.50;99.90
13561;DHT22;6852;51.686;5.314;2022-10-16T14:10:30;20.30;99.90
13561;DHT22;6852;51.686;5.314;2022-10-16T14:13:05;20.00;99.90
13561;DHT22;6852;51.686;5.314;2022-10-16T14:15:35;20.20;99.90
13561;DHT22;6852;51.686;5.314;2022-10-16T14:18:03;20.60;99.90
13561;DHT22;6852;51.686;5.314;2022-10-16T14:20:33;20.80;99.90
13561;DHT22;6852;51.686;5.314;2022-10-16T14:23:04;20.60;99.90
13561;DHT22;6852;51.686;5.314;2022-10-16T14:25:45;20.20;99.90
13561;DHT22;6852;51.686;5.314;2022-10-16T14:28:23;20.10;99.90
13561;DHT22;6852;51.686;5.314;2022-10-16T14:33:25;19.80;99.90
13561;DHT22;6852;51.686;5.314;2022-10-16T14:38:38;19.70;99.90
13561;DHT22;6852;51.686;5.314;2022-10-16T14:41:06;19.40;99.90
13561;DHT22;6852;51.686;5.314;2022-10-16T14:43:39;19.40;99.90
13561;DHT22;6852;51.686;5.314;2022-10-16T14:46:14;19.60;99.90
13561;DHT22;6852;51.686;5.314;2022-10-16T14:48:48;19.80;99.90
13561;DHT22;6852;51.686;5.314;2022-10-16T14:51:20;19.80;99.90
13561;DHT22;6852;51.686;5.314;2022-10-16T14:53:47;19.70;99.90
13561;DHT22;6852;51.686;5.314;2022-10-16T14:56:58;19.70;99.90
13561;DHT22;6852;51.686;5.314;2022-10-16T14:59:35;19.70;99.90
13561;DHT22;6852;51.686;5.314;2022-10-16T15:02:22;19.60;99.90
13561;DHT22;6852;51.686;5.314;2022-10-16T15:04:51;19.50;99.90
13561;DHT22;6852;51.686;5.314;2022-10-16T15:07:18;19.40;99.90
13561;DHT22;6852;51.686;5.314;2022-10-16T15:09:45;19.30;99.90
13561;DHT22;6852;51.686;5.314;2022-10-16T15:12:15;19.10;99.90
13561;DHT22;6852;51.686;5.314;2022-10-16T15:14:42;19.10;99.90
13561;DHT22;6852;51.686;5.314;2022-10-16T15:17:10;19.20;99.90
13561;DHT22;6852;51.686;5.314;2022-10-16T15:19:37;19.20;99.90
13561;DHT22;6852;51.686;5.314;2022-10-16T15:22:04;19.10;99.90
13561;DHT22;6852;51.686;5.314;2022-10-16T15:24:31;19.00;99.90
13561;DHT22;6852;51.686;5.314;2022-10-16T15:26:58;19.10;99.90
13561;DHT22;6852;51.686;5.314;2022-10-16T15:29:25;19.00;99.90
13561;DHT22;6852;51.686;5.314;2022-10-16T15:31:53;18.90;99.90
13561;DHT22;6852;51.686;5.314;2022-10-16T15:34:20;18.90;99.90
13561;DHT22;6852;51.686;5.314;2022-10-16T15:36:47;18.90;99.90
13561;DHT22;6852;51.686;5.314;2022-10-16T15:39:15;18.80;99.90
13561;DHT22;6852;51.686;5.314;2022-10-16T15:41:43;18.80;99.90
13561;DHT22;6852;51.686;5.314;2022-10-16T15:44:11;18.80;99.90
13561;DHT22;6852;51.686;5.314;2022-10-16T15:46:37;18.80;99.90
13561;DHT22;6852;51.686;5.314;2022-10-16T15:49:04;18.60;99.90
13561;DHT22;6852;51.686;5.314;2022-10-16T15:51:37;18.60;99.90
13561;DHT22;6852;51.686;5.314;2022-10-16T15:54:05;18.50;99.90
13561;DHT22;6852;51.686;5.314;2022-10-16T15:56:32;18.50;99.90
13561;DHT22;6852;51.686;5.314;2022-10-16T15:59:00;18.50;99.90
13561;DHT22;6852;51.686;5.314;2022-10-16T16:01:31;18.40;99.90
13561;DHT22;6852;51.686;5.314;2022-10-16T16:03:58;18.40;99.90
13561;DHT22;6852;51.686;5.314;2022-10-16T16:06:25;18.40;99.90
13561;DHT22;6852;51.686;5.314;2022-10-16T16:08:52;18.30;99.90
13561;DHT22;6852;51.686;5.314;2022-10-16T16:11:20;18.30;99.90
13561;DHT22;6852;51.686;5.314;2022-10-16T16:13:48;18.30;99.90
13561;DHT22;6852;51.686;5.314;2022-10-16T16:16:17;18.20;99.90
13561;DHT22;6852;51.686;5.314;2022-10-16T16:18:46;18.20;99.90
13561;DHT22;6852;51.686;5.314;2022-10-16T16:21:15;18.10;99.90
13561;DHT22;6852;51.686;5.314;2022-10-16T16:23:42;18.00;99.90
13561;DHT22;6852;51.686;5.314;2022-10-16T16:26:22;17.90;99.90
13561;DHT22;6852;51.686;5.314;2022-10-16T16:28:54;17.90;99.90
13561;DHT22;6852;51.686;5.314;2022-10-16T16:31:27;17.90;99.90
13561;DHT22;6852;51.686;5.314;2022-10-16T16:33:54;17.90;99.90
13561;DHT22;6852;51.686;5.314;2022-10-16T16:36:21;17.90;99.90
13561;DHT22;6852;51.686;5.314;2022-10-16T16:38:49;17.80;99.90
13561;DHT22;6852;51.686;5.314;2022-10-16T16:41:21;17.80;99.90
13561;DHT22;6852;51.686;5.314;2022-10-16T16:43:50;17.70;99.90
13561;DHT22;6852;51.686;5.314;2022-10-16T16:46:18;17.60;99.90
13561;DHT22;6852;51.686;5.314;2022-10-16T16:48:46;17.60;99.90
13561;DHT22;6852;51.686;5.314;2022-10-16T16:51:16;17.50;99.90
13561;DHT22;6852;51.686;5.314;2022-10-16T16:53:49;17.50;99.90
13561;DHT22;6852;51.686;5.314;2022-10-16T16:56:17;17.40;99.90
13561;DHT22;6852;51.686;5.314;2022-10-16T16:58:48;17.40;99.90
13561;DHT22;6852;51.686;5.314;2022-10-16T17:01:16;17.30;99.90
13561;DHT22;6852;51.686;5.314;2022-10-16T17:03:46;17.40;99.90
13561;DHT22;6852;51.686;5.314;2022-10-16T17:06:16;17.50;99.90
13561;DHT22;6852;51.686;5.314;2022-10-16T17:08:47;17.40;99.90
13561;DHT22;6852;51.686;5.314;2022-10-16T17:11:17;17.50;99.90
13561;DHT22;6852;51.686;5.314;2022-10-16T17:13:44;17.40;99.90
13561;DHT22;6852;51.686;5.314;2022-10-16T17:16:22;17.40;99.90
13561;DHT22;6852;51.686;5.314;2022-10-16T17:18:50;17.40;99.90
13561;DHT22;6852;51.686;5.314;2022-10-16T17:21:18;17.30;99.90
13561;DHT22;6852;51.686;5.314;2022-10-16T17:23:45;17.20;99.90
13561;DHT22;6852;51.686;5.314;2022-10-16T17:26:14;17.10;99.90
13561;DHT22;6852;51.686;5.314;2022-10-16T17:28:41;17.10;99.90
13561;DHT22;6852;51.686;5.314;2022-10-16T17:31:13;17.10;99.90
13561;DHT22;6852;51.686;5.314;2022-10-16T17:33:40;17.10;99.90
13561;DHT22;6852;51.686;5.314;2022-10-16T17:36:08;17.10;99.90
13561;DHT22;6852;51.686;5.314;2022-10-16T17:38:35;17.10;99.90
13561;DHT22;6852;51.686;5.314;2022-10-16T17:41:22;17.00;99.90
13561;DHT22;6852;51.686;5.314;2022-10-16T17:43:50;17.10;99.90
13561;DHT22;6852;51.686;5.314;2022-10-16T17:46:20;17.00;99.90
13561;DHT22;6852;51.686;5.314;2022-10-16T17:48:49;17.00;99.90
13561;DHT22;6852;51.686;5.314;2022-10-16T17:51:20;16.90;99.90
13561;DHT22;6852;51.686;5.314;2022-10-16T17:53:49;16.90;99.90
13561;DHT22;6852;51.686;5.314;2022-10-16T17:56:16;16.90;99.90
13561;DHT22;6852;51.686;5.314;2022-10-16T17:58:43;17.00;99.90
13561;DHT22;6852;51.686;5.314;2022-10-16T18:01:19;17.00;99.90
13561;DHT22;6852;51.686;5.314;2022-10-16T18:03:51;17.00;99.90
13561;DHT22;6852;51.686;5.314;2022-10-16T18:06:18;17.00;99.90
13561;DHT22;6852;51.686;5.314;2022-10-16T18:08:49;16.90;99.90
13561;DHT22;6852;51.686;5.314;2022-10-16T18:11:17;16.90;99.90
13561;DHT22;6852;51.686;5.314;2022-10-16T18:13:43;16.90;99.90
13561;DHT22;6852;51.686;5.314;2022-10-16T18:16:12;16.90;99.90
13561;DHT22;6852;51.686;5.314;2022-10-16T18:18:41;16.80;99.90
13561;DHT22;6852;51.686;5.314;2022-10-16T18:21:10;16.70;99.90